sensor_id;sensor_type;location;lat;lon;timestamp;pressure;altitude;pressure_sealevel;temperature;humidity
84289;BME280;75147;50.294;18.660;2024-03-23T00:54:31;98444.25;;;10.18;70.56
84289;BME280;75147;50.294;18.660;2024-03-23T00:56:57;98456.44;;;10.17;70.47
84289;BME280;75147;50.294;18.660;2024-03-23T00:59:22;98448.66;;;10.17;69.89
84289;BME280;75147;50.294;18.660;2024-03-23T01:01:52;98446.97;;;10.16;70.22
84289;BME280;75147;50.294;18.660;2024-03-23T01:04:17;98444.38;;;10.16;69.94
84289;BME280;75147;50.294;18.660;2024-03-23T01:06:42;98448.75;;;10.16;70.06
84289;BME280;75147;50.294;18.660;2024-03-23T01:09:08;98441.78;;;10.16;70.18
84289;BME280;75147;50.294;18.660;2024-03-23T01:11:36;98431.53;;;10.15;70.89
84289;BME280;75147;50.294;18.660;2024-03-23T01:14:01;98430.84;;;10.13;71.71
84289;BME280;75147;50.294;18.660;2024-03-23T01:16:28;98430.84;;;10.13;71.52
84289;BME280;75147;50.294;18.660;2024-03-23T01:18:53;98418.00;;;10.11;71.88
84289;BME280;75147;50.294;18.660;2024-03-23T01:21:19;98408.59;;;10.10;71.92
84289;BME280;75147;50.294;18.660;2024-03-23T01:23:44;98406.00;;;10.10;71.66
84289;BME280;75147;50.294;18.660;2024-03-23T01:26:09;98398.34;;;10.09;72.45
84289;BME280;75147;50.294;18.660;2024-03-23T01:28:35;98398.34;;;10.09;72.35
84289;BME280;75147;50.294;18.660;2024-03-23T01:31:00;98391.63;;;10.06;72.36
84289;BME280;75147;50.294;18.660;2024-03-23T01:33:26;98391.63;;;10.06;72.03
84289;BME280;75147;50.294;18.660;2024-03-23T01:35:51;98393.28;;;10.07;72.43
84289;BME280;75147;50.294;18.660;2024-03-23T01:38:16;98393.28;;;10.07;72.12
84289;BME280;75147;50.294;18.660;2024-03-23T01:40:42;98387.41;;;10.05;72.08
84289;BME280;75147;50.294;18.660;2024-03-23T01:43:07;98382.22;;;10.05;71.84
84289;BME280;75147;50.294;18.660;2024-03-23T01:45:34;98383.03;;;10.06;72.49
84289;BME280;75147;50.294;18.660;2024-03-23T01:48:00;98385.78;;;10.04;71.83
84289;BME280;75147;50.294;18.660;2024-03-23T01:50:26;98387.56;;;10.04;72.10
84289;BME280;75147;50.294;18.660;2024-03-23T01:52:53;98385.91;;;10.03;72.15
84289;BME280;75147;50.294;18.660;2024-03-23T01:55:19;98383.44;;;10.01;72.58
84289;BME280;75147;50.294;18.660;2024-03-23T01:57:44;98382.63;;;10.00;72.00
84289;BME280;75147;50.294;18.660;2024-03-23T02:00:10;98385.22;;;10.00;72.90
84289;BME280;75147;50.294;18.660;2024-03-23T02:02:46;98386.19;;;9.99;73.13
84289;BME280;75147;50.294;18.660;2024-03-23T02:05:12;98394.09;;;9.98;73.04
84289;BME280;75147;50.294;18.660;2024-03-23T02:07:41;98383.03;;;9.96;73.46
84289;BME280;75147;50.294;18.660;2024-03-23T02:10:07;98379.50;;;9.97;73.88
84289;BME280;75147;50.294;18.660;2024-03-23T02:12:34;98381.53;;;9.93;73.98
84289;BME280;75147;50.294;18.660;2024-03-23T02:15:00;98383.31;;;9.93;74.21
84289;BME280;75147;50.294;18.660;2024-03-23T02:17:26;98376.47;;;9.92;74.58
84289;BME280;75147;50.294;18.660;2024-03-23T02:19:51;98381.00;;;9.90;75.65
84289;BME280;75147;50.294;18.660;2024-03-23T02:22:17;98378.53;;;9.88;75.01
84289;BME280;75147;50.294;18.660;2024-03-23T02:24:43;98379.59;;;9.86;75.45
84289;BME280;75147;50.294;18.660;2024-03-23T02:27:08;98372.78;;;9.85;75.85
84289;BME280;75147;50.294;18.660;2024-03-23T02:29:34;98370.34;;;9.83;75.56
84289;BME280;75147;50.294;18.660;2024-03-23T02:31:59;98364.31;;;9.83;75.51
84289;BME280;75147;50.294;18.660;2024-03-23T02:34:25;98371.41;;;9.81;75.62
84289;BME280;75147;50.294;18.660;2024-03-23T02:36:50;98359.41;;;9.80;75.64
84289;BME280;75147;50.294;18.660;2024-03-23T02:39:15;98356.13;;;9.78;76.32
84289;BME280;75147;50.294;18.660;2024-03-23T02:41:41;98352.84;;;9.76;76.17
84289;BME280;75147;50.294;18.660;2024-03-23T02:44:06;98344.38;;;9.74;75.59
84289;BME280;75147;50.294;18.660;2024-03-23T02:46:32;98334.13;;;9.72;76.19
84289;BME280;75147;50.294;18.660;2024-03-23T02:48:57;98333.59;;;9.69;75.55
84289;BME280;75147;50.294;18.660;2024-03-23T02:51:22;98341.38;;;9.69;75.45
84289;BME280;75147;50.294;18.660;2024-03-23T02:53:48;98337.13;;;9.68;74.60
84289;BME280;75147;50.294;18.660;2024-03-23T02:56:13;98334.69;;;9.66;74.77
84289;BME280;75147;50.294;18.660;2024-03-23T02:58:42;98340.81;;;9.65;74.26
84289;BME280;75147;50.294;18.660;2024-03-23T03:01:07;98329.66;;;9.65;73.93
84289;BME280;75147;50.294;18.660;2024-03-23T03:03:33;98329.78;;;9.63;74.81
84289;BME280;75147;50.294;18.660;2024-03-23T03:05:58;98323.91;;;9.61;74.43
84289;BME280;75147;50.294;18.660;2024-03-23T03:08:23;98322.38;;;9.58;75.19
84289;BME280;75147;50.294;18.660;2024-03-23T03:10:49;98312.16;;;9.57;74.91
84289;BME280;75147;50.294;18.660;2024-03-23T03:13:14;98310.66;;;9.54;74.49
84289;BME280;75147;50.294;18.660;2024-03-23T03:15:41;98302.06;;;9.54;74.83
84289;BME280;75147;50.294;18.660;2024-03-23T03:18:06;98293.44;;;9.53;75.19
84289;BME280;75147;50.294;18.660;2024-03-23T03:20:32;98296.34;;;9.50;75.80
84289;BME280;75147;50.294;18.660;2024-03-23T03:22:57;98294.69;;;9.49;75.53
84289;BME280;75147;50.294;18.660;2024-03-23T03:25:22;98295.63;;;9.48;75.35
84289;BME280;75147;50.294;18.660;2024-03-23T03:27:48;98287.97;;;9.47;75.67
84289;BME280;75147;50.294;18.660;2024-03-23T03:30:13;98294.00;;;9.47;75.05
84289;BME280;75147;50.294;18.660;2024-03-23T03:32:38;98287.16;;;9.46;75.75
84289;BME280;75147;50.294;18.660;2024-03-23T03:35:04;98285.53;;;9.45;75.38
84289;BME280;75147;50.294;18.660;2024-03-23T03:37:30;98291.53;;;9.46;75.04
84289;BME280;75147;50.294;18.660;2024-03-23T03:39:55;98286.34;;;9.46;75.14
84289;BME280;75147;50.294;18.660;2024-03-23T03:42:20;98291.53;;;9.46;75.48
84289;BME280;75147;50.294;18.660;2024-03-23T03:44:46;98291.53;;;9.46;76.03
84289;BME280;75147;50.294;18.660;2024-03-23T03:47:11;98285.53;;;9.45;76.47
84289;BME280;75147;50.294;18.660;2024-03-23T03:49:37;98285.69;;;9.44;76.15
84289;BME280;75147;50.294;18.660;2024-03-23T03:52:02;98274.50;;;9.43;76.53
84289;BME280;75147;50.294;18.660;2024-03-23T03:54:28;98263.16;;;9.44;77.07
84289;BME280;75147;50.294;18.660;2024-03-23T03:56:53;98248.69;;;9.42;77.13
84289;BME280;75147;50.294;18.660;2024-03-23T03:59:18;98249.66;;;9.41;77.28
84289;BME280;75147;50.294;18.660;2024-03-23T04:01:45;98255.66;;;9.41;77.26
84289;BME280;75147;50.294;18.660;2024-03-23T04:04:10;98254.81;;;9.41;77.74
84289;BME280;75147;50.294;18.660;2024-03-23T04:06:36;98254.81;;;9.41;77.13
84289;BME280;75147;50.294;18.660;2024-03-23T04:09:02;98266.84;;;9.42;76.97
84289;BME280;75147;50.294;18.660;2024-03-23T04:11:27;98249.66;;;9.41;77.63
84289;BME280;75147;50.294;18.660;2024-03-23T04:13:53;98243.63;;;9.40;77.82
84289;BME280;75147;50.294;18.660;2024-03-23T04:16:26;98239.41;;;9.39;77.17
84289;BME280;75147;50.294;18.660;2024-03-23T04:18:51;98234.22;;;9.39;77.85
84289;BME280;75147;50.294;18.660;2024-03-23T04:21:17;98218.97;;;9.36;78.52
84289;BME280;75147;50.294;18.660;2024-03-23T04:23:42;98221.56;;;9.36;78.01
84289;BME280;75147;50.294;18.660;2024-03-23T04:26:08;98215.56;;;9.36;78.14
84289;BME280;75147;50.294;18.660;2024-03-23T04:28:33;98219.09;;;9.35;77.96
84289;BME280;75147;50.294;18.660;2024-03-23T04:31:03;98218.41;;;9.33;77.92
84289;BME280;75147;50.294;18.660;2024-03-23T04:33:29;98225.34;;;9.32;77.57
84289;BME280;75147;50.294;18.660;2024-03-23T04:35:54;98232.19;;;9.33;77.99
84289;BME280;75147;50.294;18.660;2024-03-23T04:38:19;98231.34;;;9.33;78.20
84289;BME280;75147;50.294;18.660;2024-03-23T04:40:45;98233.94;;;9.33;78.36
84289;BME280;75147;50.294;18.660;2024-03-23T04:43:10;98236.41;;;9.34;78.18
84289;BME280;75147;50.294;18.660;2024-03-23T04:45:35;98232.03;;;9.35;78.26
84289;BME280;75147;50.294;18.660;2024-03-23T04:48:01;98242.28;;;9.36;78.32
84289;BME280;75147;50.294;18.660;2024-03-23T04:50:26;98231.91;;;9.36;77.67
84289;BME280;75147;50.294;18.660;2024-03-23T04:52:51;98225.91;;;9.36;78.09
84289;BME280;75147;50.294;18.660;2024-03-23T04:55:17;98223.31;;;9.36;77.20
84289;BME280;75147;50.294;18.660;2024-03-23T04:57:42;98219.78;;;9.37;77.54
84289;BME280;75147;50.294;18.660;2024-03-23T05:00:08;98218.97;;;9.36;77.79
84289;BME280;75147;50.294;18.660;2024-03-23T05:02:43;98213.78;;;9.36;77.70
84289;BME280;75147;50.294;18.660;2024-03-23T05:05:08;98208.59;;;9.36;77.74
84289;BME280;75147;50.294;18.660;2024-03-23T05:07:34;98201.78;;;9.35;77.60
84289;BME280;75147;50.294;18.660;2024-03-23T05:09:59;98205.06;;;9.37;78.38
84289;BME280;75147;50.294;18.660;2024-03-23T05:12:24;98198.22;;;9.36;77.81
84289;BME280;75147;50.294;18.660;2024-03-23T05:14:50;98194.69;;;9.37;77.83
84289;BME280;75147;50.294;18.660;2024-03-23T05:17:15;98185.97;;;9.38;78.35
84289;BME280;75147;50.294;18.660;2024-03-23T05:19:40;98187.84;;;9.36;78.66
84289;BME280;75147;50.294;18.660;2024-03-23T05:22:06;98191.41;;;9.35;78.36
84289;BME280;75147;50.294;18.660;2024-03-23T05:24:31;98200.00;;;9.36;78.36
84289;BME280;75147;50.294;18.660;2024-03-23T05:26:56;98197.28;;;9.37;78.69
84289;BME280;75147;50.294;18.660;2024-03-23T05:29:24;98186.91;;;9.37;78.18
84289;BME280;75147;50.294;18.660;2024-03-23T05:31:51;98177.50;;;9.36;78.21
84289;BME280;75147;50.294;18.660;2024-03-23T05:34:17;98188.69;;;9.37;78.65
84289;BME280;75147;50.294;18.660;2024-03-23T05:36:43;98178.31;;;9.37;78.18
84289;BME280;75147;50.294;18.660;2024-03-23T05:39:08;98168.06;;;9.35;78.55
84289;BME280;75147;50.294;18.660;2024-03-23T05:41:33;98152.53;;;9.35;78.08
84289;BME280;75147;50.294;18.660;2024-03-23T05:44:01;98152.53;;;9.35;78.78
84289;BME280;75147;50.294;18.660;2024-03-23T05:46:26;98147.34;;;9.35;78.66
84289;BME280;75147;50.294;18.660;2024-03-23T05:48:52;98136.97;;;9.35;78.26
84289;BME280;75147;50.294;18.660;2024-03-23T05:51:17;98137.66;;;9.37;78.42
84289;BME280;75147;50.294;18.660;2024-03-23T05:53:43;98129.72;;;9.39;78.22
84289;BME280;75147;50.294;18.660;2024-03-23T05:56:08;98124.53;;;9.39;78.75
84289;BME280;75147;50.294;18.660;2024-03-23T05:58:34;98128.94;;;9.38;78.44
84289;BME280;75147;50.294;18.660;2024-03-23T06:01:00;98131.53;;;9.38;79.15
84289;BME280;75147;50.294;18.660;2024-03-23T06:03:27;98129.72;;;9.39;78.60
84289;BME280;75147;50.294;18.660;2024-03-23T06:05:52;98135.59;;;9.41;78.53
84289;BME280;75147;50.294;18.660;2024-03-23T06:08:21;98125.25;;;9.41;78.47
84289;BME280;75147;50.294;18.660;2024-03-23T06:10:47;98137.13;;;9.43;78.73
84289;BME280;75147;50.294;18.660;2024-03-23T06:13:12;98125.78;;;9.44;78.07
84289;BME280;75147;50.294;18.660;2024-03-23T06:15:38;98127.28;;;9.47;78.65
84289;BME280;75147;50.294;18.660;2024-03-23T06:18:04;98134.91;;;9.48;78.44
84289;BME280;75147;50.294;18.660;2024-03-23T06:20:30;98131.91;;;9.53;77.60
84289;BME280;75147;50.294;18.660;2024-03-23T06:22:56;98126.44;;;9.56;77.62
84289;BME280;75147;50.294;18.660;2024-03-23T06:25:21;98124.25;;;9.61;77.15
84289;BME280;75147;50.294;18.660;2024-03-23T06:27:46;98119.63;;;9.65;77.26
84289;BME280;75147;50.294;18.660;2024-03-23T06:30:12;98127.94;;;9.68;76.84
84289;BME280;75147;50.294;18.660;2024-03-23T06:32:38;98130.78;;;9.75;76.79
84289;BME280;75147;50.294;18.660;2024-03-23T06:35:03;98132.66;;;9.82;76.56
84289;BME280;75147;50.294;18.660;2024-03-23T06:37:34;98127.75;;;9.89;76.18
84289;BME280;75147;50.294;18.660;2024-03-23T06:39:59;98128.13;;;9.94;76.24
84289;BME280;75147;50.294;18.660;2024-03-23T06:42:24;98121.69;;;9.98;76.44
84289;BME280;75147;50.294;18.660;2024-03-23T06:44:50;98120.47;;;10.02;76.07
84289;BME280;75147;50.294;18.660;2024-03-23T06:47:15;98114.97;;;10.05;75.87
84289;BME280;75147;50.294;18.660;2024-03-23T06:49:40;98105.28;;;10.07;75.49
84289;BME280;75147;50.294;18.660;2024-03-23T06:52:06;98101.41;;;10.11;75.82
84289;BME280;75147;50.294;18.660;2024-03-23T06:54:31;98105.38;;;10.15;75.05
84289;BME280;75147;50.294;18.660;2024-03-23T06:56:56;98097.06;;;10.21;75.30
84289;BME280;75147;50.294;18.660;2024-03-23T06:59:22;98101.53;;;10.29;74.72
84289;BME280;75147;50.294;18.660;2024-03-23T07:01:47;98093.16;;;10.35;74.62
84289;BME280;75147;50.294;18.660;2024-03-23T07:04:12;98091.75;;;10.41;74.38
84289;BME280;75147;50.294;18.660;2024-03-23T07:06:45;98092.50;;;10.51;74.16
84289;BME280;75147;50.294;18.660;2024-03-23T07:09:10;98091.78;;;10.58;74.30
84289;BME280;75147;50.294;18.660;2024-03-23T07:11:36;98095.44;;;10.65;73.74
84289;BME280;75147;50.294;18.660;2024-03-23T07:14:01;98084.31;;;10.73;73.99
84289;BME280;75147;50.294;18.660;2024-03-23T07:16:28;98087.81;;;10.82;73.75
84289;BME280;75147;50.294;18.660;2024-03-23T07:18:53;98075.03;;;10.88;72.93
84289;BME280;75147;50.294;18.660;2024-03-23T07:21:18;98075.09;;;10.96;72.82
84289;BME280;75147;50.294;18.660;2024-03-23T07:23:44;98076.81;;;11.05;71.78
84289;BME280;75147;50.294;18.660;2024-03-23T07:26:12;98085.34;;;11.15;70.75
84289;BME280;75147;50.294;18.660;2024-03-23T07:28:38;98077.59;;;11.24;70.08
84289;BME280;75147;50.294;18.660;2024-03-23T07:31:11;98073.28;;;11.32;69.01
84289;BME280;75147;50.294;18.660;2024-03-23T07:33:43;98064.59;;;11.41;68.15
84289;BME280;75147;50.294;18.660;2024-03-23T07:36:09;98059.88;;;11.45;67.71
84289;BME280;75147;50.294;18.660;2024-03-23T07:38:34;98050.78;;;11.49;67.41
84289;BME280;75147;50.294;18.660;2024-03-23T07:41:09;98063.22;;;11.55;67.46
84289;BME280;75147;50.294;18.660;2024-03-23T07:43:37;98054.94;;;11.59;66.87
84289;BME280;75147;50.294;18.660;2024-03-23T07:46:03;98053.69;;;11.72;66.82
84289;BME280;75147;50.294;18.660;2024-03-23T07:48:29;98045.84;;;11.81;66.80
84289;BME280;75147;50.294;18.660;2024-03-23T07:53:31;98038.13;;;12.06;64.99
84289;BME280;75147;50.294;18.660;2024-03-23T07:56:05;98037.53;;;12.20;64.10
84289;BME280;75147;50.294;18.660;2024-03-23T07:58:31;98028.09;;;12.35;63.68
84289;BME280;75147;50.294;18.660;2024-03-23T08:01:03;98033.69;;;12.48;63.52
84289;BME280;75147;50.294;18.660;2024-03-23T08:03:29;98020.84;;;12.63;63.40
84289;BME280;75147;50.294;18.660;2024-03-23T08:05:55;98020.53;;;12.74;63.17
84289;BME280;75147;50.294;18.660;2024-03-23T08:08:20;98015.00;;;12.85;61.82
84289;BME280;75147;50.294;18.660;2024-03-23T08:10:49;98015.81;;;12.94;62.32
84289;BME280;75147;50.294;18.660;2024-03-23T08:13:15;98003.44;;;13.04;60.53
84289;BME280;75147;50.294;18.660;2024-03-23T08:15:40;97992.03;;;13.13;59.66
84289;BME280;75147;50.294;18.660;2024-03-23T08:18:06;97993.66;;;13.22;60.07
84289;BME280;75147;50.294;18.660;2024-03-23T08:20:31;97985.00;;;13.30;59.85
84289;BME280;75147;50.294;18.660;2024-03-23T08:22:56;97985.81;;;13.38;59.03
84289;BME280;75147;50.294;18.660;2024-03-23T08:25:22;97975.34;;;13.46;58.76
84289;BME280;75147;50.294;18.660;2024-03-23T08:27:47;97970.94;;;13.55;57.12
84289;BME280;75147;50.294;18.660;2024-03-23T08:30:13;97961.59;;;13.61;57.38
84289;BME280;75147;50.294;18.660;2024-03-23T08:32:39;97958.97;;;13.69;57.40
84289;BME280;75147;50.294;18.660;2024-03-23T08:35:05;97953.72;;;13.77;57.17
84289;BME280;75147;50.294;18.660;2024-03-23T08:37:30;97950.28;;;13.84;56.53
84289;BME280;75147;50.294;18.660;2024-03-23T08:39:56;97940.41;;;13.94;55.12
84289;BME280;75147;50.294;18.660;2024-03-23T08:42:21;97946.41;;;14.03;54.76
84289;BME280;75147;50.294;18.660;2024-03-23T08:44:47;97941.94;;;14.12;53.41
84289;BME280;75147;50.294;18.660;2024-03-23T08:47:15;97933.41;;;14.18;54.91
84289;BME280;75147;50.294;18.660;2024-03-23T08:49:40;97933.72;;;14.23;52.54
84289;BME280;75147;50.294;18.660;2024-03-23T08:52:06;97936.47;;;14.29;52.76
84289;BME280;75147;50.294;18.660;2024-03-23T08:54:32;97928.91;;;14.34;51.76
84289;BME280;75147;50.294;18.660;2024-03-23T08:56:57;97927.75;;;14.37;52.59
84289;BME280;75147;50.294;18.660;2024-03-23T08:59:22;97923.03;;;14.41;51.48
84289;BME280;75147;50.294;18.660;2024-03-23T09:01:49;97914.19;;;14.42;51.29
84289;BME280;75147;50.294;18.660;2024-03-23T09:04:14;97898.97;;;14.45;51.72
84289;BME280;75147;50.294;18.660;2024-03-23T09:06:42;97897.81;;;14.48;51.70
84289;BME280;75147;50.294;18.660;2024-03-23T09:09:07;97884.22;;;14.52;50.86
84289;BME280;75147;50.294;18.660;2024-03-23T09:11:33;97879.09;;;14.59;50.42
84289;BME280;75147;50.294;18.660;2024-03-23T09:13:58;97870.28;;;14.60;51.04
84289;BME280;75147;50.294;18.660;2024-03-23T09:16:23;97855.84;;;14.64;50.83
84289;BME280;75147;50.294;18.660;2024-03-23T09:18:49;97849.63;;;14.65;50.07
84289;BME280;75147;50.294;18.660;2024-03-23T09:21:14;97845.31;;;14.72;50.47
84289;BME280;75147;50.294;18.660;2024-03-23T09:23:43;97848.41;;;14.75;50.48
84289;BME280;75147;50.294;18.660;2024-03-23T09:26:08;97845.25;;;14.80;49.80
84289;BME280;75147;50.294;18.660;2024-03-23T09:28:33;97842.91;;;14.85;50.34
84289;BME280;75147;50.294;18.660;2024-03-23T09:31:06;97832.72;;;14.90;50.15
84289;BME280;75147;50.294;18.660;2024-03-23T09:33:33;97831.63;;;14.99;50.81
84289;BME280;75147;50.294;18.660;2024-03-23T09:36:03;97824.53;;;15.08;49.51
84289;BME280;75147;50.294;18.660;2024-03-23T09:38:28;97822.34;;;15.11;48.93
84289;BME280;75147;50.294;18.660;2024-03-23T09:40:54;97820.81;;;15.17;49.41
84289;BME280;75147;50.294;18.660;2024-03-23T09:43:19;97810.41;;;15.24;49.35
84289;BME280;75147;50.294;18.660;2024-03-23T09:45:45;97816.13;;;15.27;48.19
84289;BME280;75147;50.294;18.660;2024-03-23T09:48:11;97811.13;;;15.32;49.38
84289;BME280;75147;50.294;18.660;2024-03-23T09:50:41;97806.97;;;15.38;49.26
84289;BME280;75147;50.294;18.660;2024-03-23T09:53:07;97802.00;;;15.43;49.20
84289;BME280;75147;50.294;18.660;2024-03-23T09:55:33;97797.31;;;15.53;49.80
84289;BME280;75147;50.294;18.660;2024-03-23T09:57:59;97785.94;;;15.61;49.55
84289;BME280;75147;50.294;18.660;2024-03-23T10:00:24;97780.56;;;15.69;49.12
84289;BME280;75147;50.294;18.660;2024-03-23T10:02:51;97773.22;;;15.79;48.82
84289;BME280;75147;50.294;18.660;2024-03-23T10:05:24;97765.31;;;15.93;48.10
84289;BME280;75147;50.294;18.660;2024-03-23T10:07:52;97757.94;;;16.04;48.70
84289;BME280;75147;50.294;18.660;2024-03-23T10:10:18;97747.13;;;16.13;48.44
84289;BME280;75147;50.294;18.660;2024-03-23T10:12:48;97748.81;;;16.21;48.54
84289;BME280;75147;50.294;18.660;2024-03-23T10:15:23;97741.59;;;16.29;48.24
84289;BME280;75147;50.294;18.660;2024-03-23T10:17:49;97749.72;;;16.41;47.50
84289;BME280;75147;50.294;18.660;2024-03-23T10:20:22;97747.81;;;16.56;46.48
84289;BME280;75147;50.294;18.660;2024-03-23T10:22:48;97742.84;;;16.61;46.68
84289;BME280;75147;50.294;18.660;2024-03-23T10:25:14;97736.22;;;16.65;45.60
84289;BME280;75147;50.294;18.660;2024-03-23T10:27:40;97733.81;;;16.70;45.45
84289;BME280;75147;50.294;18.660;2024-03-23T10:30:15;97716.31;;;16.78;44.32
84289;BME280;75147;50.294;18.660;2024-03-23T10:32:41;97700.97;;;16.81;45.90
84289;BME280;75147;50.294;18.660;2024-03-23T10:37:42;97692.34;;;16.94;45.00
84289;BME280;75147;50.294;18.660;2024-03-23T10:40:10;97693.59;;;16.98;45.41
84289;BME280;75147;50.294;18.660;2024-03-23T10:42:37;97684.75;;;17.05;45.44
84289;BME280;75147;50.294;18.660;2024-03-23T10:45:04;97672.66;;;17.11;45.38
84289;BME280;75147;50.294;18.660;2024-03-23T10:47:31;97665.41;;;17.20;44.22
84289;BME280;75147;50.294;18.660;2024-03-23T10:49:57;97648.25;;;17.24;43.27
84289;BME280;75147;50.294;18.660;2024-03-23T10:52:22;97643.41;;;17.27;44.42
84289;BME280;75147;50.294;18.660;2024-03-23T10:54:54;97642.00;;;17.31;43.92
84289;BME280;75147;50.294;18.660;2024-03-23T10:57:25;97633.53;;;17.36;43.54
84289;BME280;75147;50.294;18.660;2024-03-23T10:59:52;97628.66;;;17.39;43.17
84289;BME280;75147;50.294;18.660;2024-03-23T11:02:21;97628.69;;;17.46;44.31
84289;BME280;75147;50.294;18.660;2024-03-23T11:04:47;97620.81;;;17.52;42.26
84289;BME280;75147;50.294;18.660;2024-03-23T11:09:50;97614.38;;;17.62;41.54
84289;BME280;75147;50.294;18.660;2024-03-23T11:17:24;97575.19;;;17.73;42.21
84289;BME280;75147;50.294;18.660;2024-03-23T11:27:40;97531.28;;;18.00;41.18
84289;BME280;75147;50.294;18.660;2024-03-23T11:32:42;97511.84;;;18.08;40.73
84289;BME280;75147;50.294;18.660;2024-03-23T11:35:07;97518.09;;;18.13;40.53
84289;BME280;75147;50.294;18.660;2024-03-23T11:37:35;97521.69;;;18.19;40.36
84289;BME280;75147;50.294;18.660;2024-03-23T11:40:18;97517.66;;;18.23;40.12
84289;BME280;75147;50.294;18.660;2024-03-23T11:42:44;97509.34;;;18.26;39.79
84289;BME280;75147;50.294;18.660;2024-03-23T11:45:09;97502.88;;;18.28;40.63
84289;BME280;75147;50.294;18.660;2024-03-23T11:47:35;97490.50;;;18.36;40.13
84289;BME280;75147;50.294;18.660;2024-03-23T11:50:00;97497.34;;;18.43;40.32
84289;BME280;75147;50.294;18.660;2024-03-23T11:52:26;97481.94;;;18.47;39.85
84289;BME280;75147;50.294;18.660;2024-03-23T11:54:51;97483.50;;;18.54;40.42
84289;BME280;75147;50.294;18.660;2024-03-23T11:57:16;97467.13;;;18.59;40.98
84289;BME280;75147;50.294;18.660;2024-03-23T11:59:42;97464.44;;;18.65;39.93
84289;BME280;75147;50.294;18.660;2024-03-23T12:02:13;97466.81;;;18.74;39.58
84289;BME280;75147;50.294;18.660;2024-03-23T12:04:41;97457.47;;;18.78;38.57
84289;BME280;75147;50.294;18.660;2024-03-23T12:07:18;97451.59;;;18.82;38.99
84289;BME280;75147;50.294;18.660;2024-03-23T12:09:44;97450.13;;;18.86;37.94
84289;BME280;75147;50.294;18.660;2024-03-23T12:12:17;97445.63;;;18.93;38.06
84289;BME280;75147;50.294;18.660;2024-03-23T12:15:03;97427.16;;;19.00;36.88
84289;BME280;75147;50.294;18.660;2024-03-23T12:17:28;97415.97;;;19.04;36.53
84289;BME280;75147;50.294;18.660;2024-03-23T12:19:54;97402.59;;;19.06;36.11
84289;BME280;75147;50.294;18.660;2024-03-23T12:22:22;97393.56;;;19.20;36.98
84289;BME280;75147;50.294;18.660;2024-03-23T12:24:48;97389.09;;;19.21;36.28
84289;BME280;75147;50.294;18.660;2024-03-23T12:27:14;97380.53;;;19.25;36.56
84289;BME280;75147;50.294;18.660;2024-03-23T12:29:40;97375.00;;;19.33;38.58
84289;BME280;75147;50.294;18.660;2024-03-23T12:32:07;97369.06;;;19.38;36.51
84289;BME280;75147;50.294;18.660;2024-03-23T12:34:32;97367.44;;;19.37;35.08
84289;BME280;75147;50.294;18.660;2024-03-23T12:36:58;97369.06;;;19.38;35.05
84289;BME280;75147;50.294;18.660;2024-03-23T12:39:23;97375.50;;;19.42;35.73
84289;BME280;75147;50.294;18.660;2024-03-23T12:41:49;97365.75;;;19.49;36.29
84289;BME280;75147;50.294;18.660;2024-03-23T12:44:15;97351.53;;;19.50;36.50
84289;BME280;75147;50.294;18.660;2024-03-23T12:46:44;97349.47;;;19.52;36.13
84289;BME280;75147;50.294;18.660;2024-03-23T12:49:10;97350.78;;;19.61;35.56
84289;BME280;75147;50.294;18.660;2024-03-23T12:51:35;97348.44;;;19.71;36.17
84289;BME280;75147;50.294;18.660;2024-03-23T12:54:01;97345.34;;;19.74;35.04
84289;BME280;75147;50.294;18.660;2024-03-23T12:56:26;97347.44;;;19.84;35.25
84289;BME280;75147;50.294;18.660;2024-03-23T12:58:53;97333.03;;;19.86;36.09
84289;BME280;75147;50.294;18.660;2024-03-23T13:01:20;97339.81;;;19.94;34.81
84289;BME280;75147;50.294;18.660;2024-03-23T13:03:47;97339.00;;;19.94;35.65
84289;BME280;75147;50.294;18.660;2024-03-23T13:06:12;97341.19;;;19.97;34.46
84289;BME280;75147;50.294;18.660;2024-03-23T13:08:38;97352.75;;;19.96;35.08
84289;BME280;75147;50.294;18.660;2024-03-23T13:11:05;97362.59;;;19.88;35.35
84289;BME280;75147;50.294;18.660;2024-03-23T13:13:30;97356.84;;;19.80;35.68
84289;BME280;75147;50.294;18.660;2024-03-23T13:15:58;97377.06;;;19.68;36.00
84289;BME280;75147;50.294;18.660;2024-03-23T13:18:23;97384.53;;;19.53;36.31
84289;BME280;75147;50.294;18.660;2024-03-23T13:20:49;97425.81;;;19.34;36.20
84289;BME280;75147;50.294;18.660;2024-03-23T13:23:14;97515.31;;;19.16;38.71
84289;BME280;75147;50.294;18.660;2024-03-23T13:25:39;97683.28;;;17.64;51.57
84289;BME280;75147;50.294;18.660;2024-03-23T13:28:05;97646.66;;;16.27;58.44
84289;BME280;75147;50.294;18.660;2024-03-23T13:30:31;97673.16;;;14.84;67.02
84289;BME280;75147;50.294;18.660;2024-03-23T13:32:56;97663.47;;;13.21;72.83
84289;BME280;75147;50.294;18.660;2024-03-23T13:35:21;97679.25;;;12.19;77.21
84289;BME280;75147;50.294;18.660;2024-03-23T13:37:48;97705.28;;;11.38;80.45
84289;BME280;75147;50.294;18.660;2024-03-23T13:40:14;97696.22;;;10.84;83.08
84289;BME280;75147;50.294;18.660;2024-03-23T13:42:39;97681.34;;;10.52;84.77
84289;BME280;75147;50.294;18.660;2024-03-23T13:45:05;97702.47;;;10.23;85.39
84289;BME280;75147;50.294;18.660;2024-03-23T13:47:30;97680.59;;;10.08;86.79
84289;BME280;75147;50.294;18.660;2024-03-23T13:49:55;97695.75;;;9.94;87.31
84289;BME280;75147;50.294;18.660;2024-03-23T13:52:21;97682.72;;;9.86;88.07
84289;BME280;75147;50.294;18.660;2024-03-23T13:54:48;97695.50;;;9.80;89.08
84289;BME280;75147;50.294;18.660;2024-03-23T13:57:13;97701.94;;;9.76;89.97
84289;BME280;75147;50.294;18.660;2024-03-23T13:59:39;97688.63;;;9.71;90.25
84289;BME280;75147;50.294;18.660;2024-03-23T14:02:04;97683.06;;;9.66;90.57
84289;BME280;75147;50.294;18.660;2024-03-23T14:04:30;97676.56;;;9.62;90.97
84289;BME280;75147;50.294;18.660;2024-03-23T14:06:55;97673.28;;;9.59;90.90